North Jay, Maine
Current Conditions -  °F | °C
As of 10:53 AM on Friday 19 Dec 2014 (Local Time) from KAUG Reporting Station
Overcast Overcast  
Wind Chill: 20°   Ceiling: 2700
Heat Index: 30°   Visibility: 10mi
Dew Point: 20°   Wind: 13mph
Humidity: 66%   Direction: 340°NNW
Pressure: 29.92"   Gusts: NA
Location:  44.55°N, 70.24°W
Report Text: KAUG 191553Z AUTO 34011KT 10SM OVC027 M01/M07 A2992 RMK AO2 SLP136 T10111067
Loading
Personal Weather Stations






























Interactive Weather Map New forecast layout! Learn more

10-Day Weather Forecast

Advertisements
Track Severe Weather on mobile